UCA4836 KIAH-KGPT
Flight info
| Callsign | UCA4836 |
|---|---|
| Flight time | N/A |
| Altitude | 33000 |
| Route | GUMBY3 GUSTI HRV |
| Aircraft | E145/M-SABDFGRW/S |
Departure
| Time | 2026-04-30 22:01 |
|---|---|
| Airport | George Bush Intercontinental Airport (KIAH) |
Arrival
| Time | N/A |
|---|---|
| Airport | Gulfport Biloxi International Airport (KGPT) |
| Time | Latitude | Longitude | Altitude | Speed | Heading |
|---|---|---|---|---|---|
| 2026-04-30 21:35 | 29.98462 | -95.34593 | 97 ft | 0 kts | 45° |
| 2026-04-30 21:51 | 29.98460 | -95.34596 | 97 ft | 2 kts | 45° |
| 2026-04-30 21:51 | 29.98450 | -95.34609 | 96 ft | 2 kts | 75° |
| 2026-04-30 21:51 | 29.98452 | -95.34625 | 96 ft | 2 kts | 124° |
| 2026-04-30 21:52 | 29.98462 | -95.34634 | 96 ft | 0 kts | 168° |
| 2026-04-30 21:52 | 29.98466 | -95.34635 | 96 ft | 0 kts | 168° |
| 2026-04-30 21:56 | 29.98465 | -95.34635 | 96 ft | 1 kts | 168° |
| 2026-04-30 21:56 | 29.98431 | -95.34631 | 96 ft | 7 kts | 179° |
| 2026-04-30 21:56 | 29.98385 | -95.34652 | 96 ft | 8 kts | 252° |
| 2026-04-30 21:56 | 29.98383 | -95.34750 | 95 ft | 18 kts | 270° |
| 2026-04-30 21:57 | 29.98383 | -95.34906 | 95 ft | 20 kts | 271° |
| 2026-04-30 21:57 | 29.98382 | -95.35072 | 95 ft | 18 kts | 270° |
| 2026-04-30 21:57 | 29.98385 | -95.35188 | 95 ft | 11 kts | 287° |
| 2026-04-30 21:57 | 29.98464 | -95.35252 | 95 ft | 21 kts | 332° |
| 2026-04-30 21:58 | 29.98603 | -95.35339 | 95 ft | 23 kts | 332° |
| 2026-04-30 21:58 | 29.98749 | -95.35429 | 95 ft | 23 kts | 332° |
| 2026-04-30 21:58 | 29.98867 | -95.35501 | 95 ft | 9 kts | 328° |
| 2026-04-30 21:58 | 29.98878 | -95.35574 | 95 ft | 10 kts | 245° |
| 2026-04-30 21:59 | 29.98840 | -95.35654 | 95 ft | 11 kts | 242° |
| 2026-04-30 21:59 | 29.98828 | -95.35679 | 95 ft | 0 kts | 242° |
| 2026-04-30 22:00 | 29.98807 | -95.35724 | 95 ft | 8 kts | 242° |
| 2026-04-30 22:00 | 29.98717 | -95.35744 | 95 ft | 23 kts | 152° |
| 2026-04-30 22:00 | 29.98338 | -95.35513 | 95 ft | 98 kts | 152° |
| 2026-04-30 22:01 | 29.97546 | -95.35027 | 95 ft | 155 kts | 152° |
| 2026-04-30 22:01 | 29.96545 | -95.34411 | 435 ft | 167 kts | 150° |
| 2026-04-30 22:01 | 29.95547 | -95.33732 | 1030 ft | 169 kts | 134° |
| 2026-04-30 22:01 | 29.94920 | -95.32607 | 1518 ft | 175 kts | 102° |
| 2026-04-30 22:02 | 29.94817 | -95.31141 | 1909 ft | 192 kts | 94° |
| 2026-04-30 22:02 | 29.94642 | -95.29562 | 2291 ft | 209 kts | 97° |
| 2026-04-30 22:02 | 29.94367 | -95.27877 | 2730 ft | 223 kts | 101° |
| 2026-04-30 22:02 | 29.93974 | -95.25993 | 2962 ft | 255 kts | 103° |
| 2026-04-30 22:03 | 29.93712 | -95.23995 | 3819 ft | 256 kts | 89° |
| 2026-04-30 22:03 | 29.93741 | -95.21964 | 4719 ft | 258 kts | 92° |
| 2026-04-30 22:03 | 29.93595 | -95.19895 | 5526 ft | 265 kts | 95° |
| 2026-04-30 22:03 | 29.93429 | -95.17765 | 6395 ft | 270 kts | 95° |
| 2026-04-30 22:04 | 29.93257 | -95.15619 | 7232 ft | 275 kts | 96° |
| 2026-04-30 22:04 | 29.93078 | -95.13414 | 8035 ft | 280 kts | 97° |
| 2026-04-30 22:04 | 29.92711 | -95.08902 | 9585 ft | 290 kts | 98° |
| 2026-04-30 22:05 | 29.92520 | -95.06581 | 10257 ft | 299 kts | 98° |
| 2026-04-30 22:05 | 29.92321 | -95.04148 | 10808 ft | 312 kts | 98° |
| 2026-04-30 22:05 | 29.92112 | -95.01598 | 11225 ft | 328 kts | 98° |
| 2026-04-30 22:05 | 29.91891 | -94.98914 | 11696 ft | 342 kts | 98° |
| 2026-04-30 22:06 | 29.91664 | -94.96161 | 12134 ft | 355 kts | 98° |
| 2026-04-30 22:06 | 29.91185 | -94.90379 | 13213 ft | 373 kts | 98° |
| 2026-04-30 22:06 | 29.90936 | -94.87379 | 13809 ft | 378 kts | 98° |
| 2026-04-30 22:07 | 29.90683 | -94.84347 | 14424 ft | 383 kts | 97° |
| 2026-04-30 22:07 | 29.90428 | -94.81297 | 15034 ft | 387 kts | 97° |
| 2026-04-30 22:07 | 29.90170 | -94.78221 | 15573 ft | 392 kts | 97° |
| 2026-04-30 22:07 | 29.89901 | -94.75037 | 15962 ft | 403 kts | 96° |
| 2026-04-30 22:08 | 29.89628 | -94.71799 | 16387 ft | 409 kts | 96° |
| 2026-04-30 22:08 | 29.89355 | -94.68576 | 17151 ft | 406 kts | 96° |
| 2026-04-30 22:08 | 29.89078 | -94.65297 | 17731 ft | 408 kts | 95° |
| 2026-04-30 22:08 | 29.88802 | -94.62059 | 18362 ft | 407 kts | 95° |
| 2026-04-30 22:09 | 29.88525 | -94.58813 | 19066 ft | 403 kts | 95° |
| 2026-04-30 22:09 | 29.88248 | -94.55573 | 19650 ft | 403 kts | 95° |
| 2026-04-30 22:09 | 29.87973 | -94.52376 | 20272 ft | 401 kts | 95° |
| 2026-04-30 22:09 | 29.87699 | -94.49183 | 20782 ft | 402 kts | 95° |
| 2026-04-30 22:10 | 29.87424 | -94.46001 | 21402 ft | 398 kts | 95° |
| 2026-04-30 22:10 | 29.87150 | -94.42831 | 21963 ft | 396 kts | 95° |
| 2026-04-30 22:10 | 29.86878 | -94.39700 | 22463 ft | 396 kts | 95° |
| 2026-04-30 22:10 | 29.86605 | -94.36567 | 22954 ft | 395 kts | 95° |
| 2026-04-30 22:11 | 29.86148 | -94.30257 | 23848 ft | 396 kts | 91° |
| 2026-04-30 22:11 | 29.86067 | -94.27132 | 24320 ft | 395 kts | 91° |
| 2026-04-30 22:11 | 29.85973 | -94.23950 | 24755 ft | 395 kts | 91° |
| 2026-04-30 22:12 | 29.85879 | -94.20813 | 25185 ft | 394 kts | 91° |
| 2026-04-30 22:12 | 29.85783 | -94.17693 | 25579 ft | 395 kts | 91° |
| 2026-04-30 22:12 | 29.85685 | -94.14542 | 25969 ft | 395 kts | 90° |
| 2026-04-30 22:12 | 29.85586 | -94.11356 | 26382 ft | 394 kts | 90° |
| 2026-04-30 22:13 | 29.85488 | -94.08225 | 26751 ft | 395 kts | 91° |
| 2026-04-30 22:13 | 29.85400 | -94.05084 | 27118 ft | 395 kts | 88° |
| 2026-04-30 22:13 | 29.85615 | -94.01967 | 27444 ft | 393 kts | 79° |
| 2026-04-30 22:13 | 29.85969 | -93.98844 | 27769 ft | 395 kts | 80° |
| 2026-04-30 22:14 | 29.86312 | -93.95676 | 28152 ft | 394 kts | 80° |
| 2026-04-30 22:14 | 29.86646 | -93.92574 | 28433 ft | 396 kts | 80° |
| 2026-04-30 22:14 | 29.86982 | -93.89429 | 28685 ft | 398 kts | 80° |
| 2026-04-30 22:14 | 29.87318 | -93.86264 | 28933 ft | 401 kts | 80° |
| 2026-04-30 22:15 | 29.87659 | -93.83058 | 29195 ft | 403 kts | 79° |
| 2026-04-30 22:15 | 29.87994 | -93.79890 | 29454 ft | 405 kts | 80° |
| 2026-04-30 22:15 | 29.88336 | -93.76662 | 29722 ft | 407 kts | 79° |
| 2026-04-30 22:15 | 29.88678 | -93.73417 | 29988 ft | 409 kts | 79° |
| 2026-04-30 22:16 | 29.89016 | -93.70191 | 30256 ft | 410 kts | 79° |
| 2026-04-30 22:16 | 29.89360 | -93.66924 | 30522 ft | 411 kts | 79° |
| 2026-04-30 22:17 | 29.90386 | -93.57096 | 31332 ft | 414 kts | 79° |
| 2026-04-30 22:17 | 29.90733 | -93.53756 | 31604 ft | 414 kts | 79° |
| 2026-04-30 22:17 | 29.91411 | -93.47207 | 32147 ft | 415 kts | 80° |
| 2026-04-30 22:18 | 29.91750 | -93.43919 | 32422 ft | 415 kts | 79° |
| 2026-04-30 22:18 | 29.92430 | -93.37304 | 32959 ft | 414 kts | 79° |
| 2026-04-30 22:19 | 29.93463 | -93.27189 | 32997 ft | 427 kts | 80° |
| 2026-04-30 22:20 | 29.94521 | -93.16747 | 32996 ft | 438 kts | 80° |
| 2026-04-30 22:20 | 29.95592 | -93.06078 | 32992 ft | 449 kts | 80° |
| 2026-04-30 22:21 | 29.96322 | -92.98769 | 32995 ft | 455 kts | 80° |
| 2026-04-30 22:21 | 29.97014 | -92.91492 | 32986 ft | 462 kts | 84° |
| 2026-04-30 22:22 | 29.96878 | -92.83981 | 32974 ft | 469 kts | 90° |
| 2026-04-30 22:22 | 29.96639 | -92.76398 | 32973 ft | 473 kts | 90° |
| 2026-04-30 22:23 | 29.96395 | -92.68737 | 32975 ft | 477 kts | 90° |
| 2026-04-30 22:23 | 29.96144 | -92.61021 | 32977 ft | 481 kts | 90° |
| 2026-04-30 22:24 | 29.95887 | -92.53251 | 32979 ft | 485 kts | 90° |
| 2026-04-30 22:24 | 29.95624 | -92.45445 | 32984 ft | 488 kts | 90° |
| 2026-04-30 22:25 | 29.95355 | -92.37573 | 32990 ft | 491 kts | 90° |
| 2026-04-30 22:25 | 29.95079 | -92.29690 | 32986 ft | 493 kts | 91° |
| 2026-04-30 22:26 | 29.94657 | -92.17826 | 33000 ft | 495 kts | 91° |
| 2026-04-30 22:27 | 29.94370 | -92.09911 | 33004 ft | 496 kts | 91° |
| 2026-04-30 22:27 | 29.93925 | -91.97953 | 33009 ft | 498 kts | 91° |
| 2026-04-30 22:28 | 29.93470 | -91.85979 | 33008 ft | 499 kts | 91° |
| 2026-04-30 22:29 | 29.92842 | -91.69924 | 33004 ft | 502 kts | 91° |
| 2026-04-30 22:31 | 29.91694 | -91.41742 | 33005 ft | 505 kts | 91° |
| 2026-04-30 22:32 | 29.90836 | -91.21617 | 32960 ft | 500 kts | 91° |
| 2026-04-30 22:33 | 29.90314 | -91.09699 | 31188 ft | 494 kts | 92° |
| 2026-04-30 22:33 | 29.89966 | -91.01884 | 29965 ft | 485 kts | 91° |
| 2026-04-30 22:34 | 29.89447 | -90.90424 | 28203 ft | 475 kts | 91° |
| 2026-04-30 22:35 | 29.89102 | -90.82916 | 27065 ft | 468 kts | 91° |
| 2026-04-30 22:36 | 29.88410 | -90.68149 | 25096 ft | 464 kts | 91° |
| 2026-04-30 22:36 | 29.88234 | -90.64452 | 24664 ft | 468 kts | 91° |
| 2026-04-30 22:37 | 29.87689 | -90.53114 | 23218 ft | 478 kts | 91° |
| 2026-04-30 22:37 | 29.87503 | -90.49301 | 22699 ft | 475 kts | 91° |
| 2026-04-30 22:37 | 29.87135 | -90.41820 | 21334 ft | 461 kts | 91° |
| 2026-04-30 22:38 | 29.86778 | -90.34627 | 20023 ft | 442 kts | 92° |
| 2026-04-30 22:38 | 29.86432 | -90.27724 | 18900 ft | 428 kts | 92° |
| 2026-04-30 22:39 | 29.86259 | -90.24322 | 18316 ft | 422 kts | 91° |
| 2026-04-30 22:39 | 29.85753 | -90.14386 | 16589 ft | 408 kts | 92° |
| 2026-04-30 22:40 | 29.85252 | -90.04746 | 14721 ft | 399 kts | 93° |
| 2026-04-30 22:41 | 29.87527 | -89.96106 | 12793 ft | 377 kts | 52° |
| 2026-04-30 22:41 | 29.90335 | -89.91490 | 11687 ft | 328 kts | 52° |
| 2026-04-30 22:42 | 29.95413 | -89.83068 | 10253 ft | 315 kts | 52° |
| 2026-04-30 22:43 | 29.97859 | -89.78999 | 9626 ft | 303 kts | 52° |
| 2026-04-30 22:43 | 30.00232 | -89.75049 | 9211 ft | 296 kts | 52° |
| 2026-04-30 22:44 | 30.02553 | -89.71181 | 8930 ft | 292 kts | 53° |
| 2026-04-30 22:45 | 30.08107 | -89.64857 | 8464 ft | 278 kts | 26° |
| 2026-04-30 22:45 | 30.11468 | -89.62696 | 8320 ft | 274 kts | 25° |
| 2026-04-30 22:46 | 30.14819 | -89.60581 | 8179 ft | 274 kts | 25° |
| 2026-04-30 22:47 | 30.21547 | -89.56348 | 7900 ft | 273 kts | 25° |
| 2026-04-30 22:47 | 30.24891 | -89.54244 | 7762 ft | 273 kts | 25° |
| 2026-04-30 22:48 | 30.28214 | -89.52152 | 7620 ft | 272 kts | 25° |
| 2026-04-30 22:49 | 30.33191 | -89.49016 | 7414 ft | 270 kts | 25° |